sensor_id;sensor_type;location;lat;lon;timestamp;P1;P2;P0
37709;PMS5003;60223;34.854;-92.408;2024-02-16T00:01:15;57;53;
37709;PMS5003;60223;34.854;-92.408;2024-02-16T00:03:40;53;50;
37709;PMS5003;60223;34.854;-92.408;2024-02-16T00:06:05;56;54;
37709;PMS5003;60223;34.854;-92.408;2024-02-16T00:08:30;49;48;
37709;PMS5003;60223;34.854;-92.408;2024-02-16T00:10:56;50;50;
37709;PMS5003;60223;34.854;-92.408;2024-02-16T00:13:19;48;43;
37709;PMS5003;60223;34.854;-92.408;2024-02-16T00:15:46;47;47;
37709;PMS5003;60223;34.854;-92.408;2024-02-16T00:18:11;47;45;
37709;PMS5003;60223;34.854;-92.408;2024-02-16T00:20:37;48;44;
37709;PMS5003;60223;34.854;-92.408;2024-02-16T00:23:00;49;45;
37709;PMS5003;60223;34.854;-92.408;2024-02-16T00:25:28;47;44;
37709;PMS5003;60223;34.854;-92.408;2024-02-16T00:27:53;53;48;
37709;PMS5003;60223;34.854;-92.408;2024-02-16T00:30:19;49;48;
37709;PMS5003;60223;34.854;-92.408;2024-02-16T00:32:42;44;43;
37709;PMS5003;60223;34.854;-92.408;2024-02-16T00:35:09;50;48;
37709;PMS5003;60223;34.854;-92.408;2024-02-16T00:37:34;40;40;
37709;PMS5003;60223;34.854;-92.408;2024-02-16T00:40:00;46;43;
37709;PMS5003;60223;34.854;-92.408;2024-02-16T00:42:26;48;41;
37709;PMS5003;60223;34.854;-92.408;2024-02-16T00:44:49;43;41;
37709;PMS5003;60223;34.854;-92.408;2024-02-16T00:47:17;45;42;
37709;PMS5003;60223;34.854;-92.408;2024-02-16T00:49:42;40;40;
37709;PMS5003;60223;34.854;-92.408;2024-02-16T00:52:08;44;43;
37709;PMS5003;60223;34.854;-92.408;2024-02-16T00:54:33;41;38;
37709;PMS5003;60223;34.854;-92.408;2024-02-16T00:56:58;44;40;
37709;PMS5003;60223;34.854;-92.408;2024-02-16T00:59:23;40;38;
37709;PMS5003;60223;34.854;-92.408;2024-02-16T01:01:50;38;37;
37709;PMS5003;60223;34.854;-92.408;2024-02-16T01:04:15;39;37;
37709;PMS5003;60223;34.854;-92.408;2024-02-16T01:06:38;35;34;
37709;PMS5003;60223;34.854;-92.408;2024-02-16T01:09:06;35;33;
37709;PMS5003;60223;34.854;-92.408;2024-02-16T01:11:31;33;31;
37709;PMS5003;60223;34.854;-92.408;2024-02-16T01:13:56;36;35;
37709;PMS5003;60223;34.854;-92.408;2024-02-16T01:16:20;38;36;
37709;PMS5003;60223;34.854;-92.408;2024-02-16T01:18:48;35;35;
37709;PMS5003;60223;34.854;-92.408;2024-02-16T01:21:13;35;35;
37709;PMS5003;60223;34.854;-92.408;2024-02-16T01:23:39;37;34;
37709;PMS5003;60223;34.854;-92.408;2024-02-16T01:26:03;32;32;
37709;PMS5003;60223;34.854;-92.408;2024-02-16T01:28:27;32;32;
37709;PMS5003;60223;34.854;-92.408;2024-02-16T01:30:55;34;31;
37709;PMS5003;60223;34.854;-92.408;2024-02-16T01:33:20;37;32;
37709;PMS5003;60223;34.854;-92.408;2024-02-16T01:35:45;35;35;
37709;PMS5003;60223;34.854;-92.408;2024-02-16T01:38:11;36;35;
37709;PMS5003;60223;34.854;-92.408;2024-02-16T01:40:33;33;29;
37709;PMS5003;60223;34.854;-92.408;2024-02-16T01:43:02;28;28;
37709;PMS5003;60223;34.854;-92.408;2024-02-16T01:45:27;36;34;
37709;PMS5003;60223;34.854;-92.408;2024-02-16T01:47:52;34;32;
37709;PMS5003;60223;34.854;-92.408;2024-02-16T01:50:18;32;31;
37709;PMS5003;60223;34.854;-92.408;2024-02-16T01:52:41;37;32;
37709;PMS5003;60223;34.854;-92.408;2024-02-16T01:59:58;31;28;
37709;PMS5003;60223;34.854;-92.408;2024-02-16T02:02:26;34;29;
37709;PMS5003;60223;34.854;-92.408;2024-02-16T02:04:49;25;23;
37709;PMS5003;60223;34.854;-92.408;2024-02-16T02:07:16;35;31;
37709;PMS5003;60223;34.854;-92.408;2024-02-16T02:09:41;27;25;
37709;PMS5003;60223;34.854;-92.408;2024-02-16T02:12:06;24;22;
37709;PMS5003;60223;34.854;-92.408;2024-02-16T02:14:30;22;21;
37709;PMS5003;60223;34.854;-92.408;2024-02-16T02:16:57;31;31;
37709;PMS5003;60223;34.854;-92.408;2024-02-16T02:19:22;29;27;
37709;PMS5003;60223;34.854;-92.408;2024-02-16T02:21:47;30;25;
37709;PMS5003;60223;34.854;-92.408;2024-02-16T02:24:12;26;25;
37709;PMS5003;60223;34.854;-92.408;2024-02-16T02:26:38;25;25;
37709;PMS5003;60223;34.854;-92.408;2024-02-16T02:29:01;26;24;
37709;PMS5003;60223;34.854;-92.408;2024-02-16T02:31:28;25;25;
37709;PMS5003;60223;34.854;-92.408;2024-02-16T02:33:54;24;23;
37709;PMS5003;60223;34.854;-92.408;2024-02-16T02:36:18;25;25;
37709;PMS5003;60223;34.854;-92.408;2024-02-16T02:38:44;24;23;
37709;PMS5003;60223;34.854;-92.408;2024-02-16T02:41:08;25;24;
37709;PMS5003;60223;34.854;-92.408;2024-02-16T02:43:35;28;24;
37709;PMS5003;60223;34.854;-92.408;2024-02-16T02:45:58;24;22;
37709;PMS5003;60223;34.854;-92.408;2024-02-16T02:48:25;26;24;
37709;PMS5003;60223;34.854;-92.408;2024-02-16T02:50:50;18;18;
37709;PMS5003;60223;34.854;-92.408;2024-02-16T02:53:17;21;21;
37709;PMS5003;60223;34.854;-92.408;2024-02-16T02:55:41;17;17;
37709;PMS5003;60223;34.854;-92.408;2024-02-16T02:58:06;23;23;
37709;PMS5003;60223;34.854;-92.408;2024-02-16T03:00:30;22;21;
37709;PMS5003;60223;34.854;-92.408;2024-02-16T03:02:57;19;19;
37709;PMS5003;60223;34.854;-92.408;2024-02-16T03:05:23;19;17;
37709;PMS5003;60223;34.854;-92.408;2024-02-16T03:07:49;19;19;
37709;PMS5003;60223;34.854;-92.408;2024-02-16T03:10:14;24;19;
37709;PMS5003;60223;34.854;-92.408;2024-02-16T03:12:37;16;16;
37709;PMS5003;60223;34.854;-92.408;2024-02-16T03:15:05;19;18;
37709;PMS5003;60223;34.854;-92.408;2024-02-16T03:17:30;16;16;
37709;PMS5003;60223;34.854;-92.408;2024-02-16T03:19:55;22;22;
37709;PMS5003;60223;34.854;-92.408;2024-02-16T03:22:21;18;17;
37709;PMS5003;60223;34.854;-92.408;2024-02-16T03:24:46;17;17;
37709;PMS5003;60223;34.854;-92.408;2024-02-16T03:27:10;15;15;
37709;PMS5003;60223;34.854;-92.408;2024-02-16T03:29:37;16;15;
37709;PMS5003;60223;34.854;-92.408;2024-02-16T03:32:03;19;19;
37709;PMS5003;60223;34.854;-92.408;2024-02-16T03:34:28;18;16;
37709;PMS5003;60223;34.854;-92.408;2024-02-16T03:36:54;16;16;
37709;PMS5003;60223;34.854;-92.408;2024-02-16T03:39:17;17;15;
37709;PMS5003;60223;34.854;-92.408;2024-02-16T03:41:45;16;14;
37709;PMS5003;60223;34.854;-92.408;2024-02-16T03:44:11;14;14;
37709;PMS5003;60223;34.854;-92.408;2024-02-16T03:46:36;16;16;
37709;PMS5003;60223;34.854;-92.408;2024-02-16T03:49:02;16;16;
37709;PMS5003;60223;34.854;-92.408;2024-02-16T03:51:28;19;18;
37709;PMS5003;60223;34.854;-92.408;2024-02-16T03:53:53;22;19;
37709;PMS5003;60223;34.854;-92.408;2024-02-16T03:56:19;20;19;
37709;PMS5003;60223;34.854;-92.408;2024-02-16T03:58:45;18;18;
37709;PMS5003;60223;34.854;-92.408;2024-02-16T04:01:10;15;15;
37709;PMS5003;60223;34.854;-92.408;2024-02-16T04:03:34;16;16;
37709;PMS5003;60223;34.854;-92.408;2024-02-16T04:06:01;18;18;
37709;PMS5003;60223;34.854;-92.408;2024-02-16T04:08:27;16;16;
37709;PMS5003;60223;34.854;-92.408;2024-02-16T04:10:53;15;14;
37709;PMS5003;60223;34.854;-92.408;2024-02-16T04:13:16;16;15;
37709;PMS5003;60223;34.854;-92.408;2024-02-16T04:15:43;15;15;
37709;PMS5003;60223;34.854;-92.408;2024-02-16T04:18:09;16;15;
37709;PMS5003;60223;34.854;-92.408;2024-02-16T04:20:35;16;14;
37709;PMS5003;60223;34.854;-92.408;2024-02-16T04:23:00;14;13;
37709;PMS5003;60223;34.854;-92.408;2024-02-16T04:25:27;15;15;
37709;PMS5003;60223;34.854;-92.408;2024-02-16T04:27:52;16;16;
37709;PMS5003;60223;34.854;-92.408;2024-02-16T04:30:17;18;18;
37709;PMS5003;60223;34.854;-92.408;2024-02-16T04:32:43;13;13;
37709;PMS5003;60223;34.854;-92.408;2024-02-16T04:35:08;13;12;
37709;PMS5003;60223;34.854;-92.408;2024-02-16T04:37:33;17;16;
37709;PMS5003;60223;34.854;-92.408;2024-02-16T04:39:59;13;13;
37709;PMS5003;60223;34.854;-92.408;2024-02-16T04:42:25;21;21;
37709;PMS5003;60223;34.854;-92.408;2024-02-16T04:44:50;16;16;
37709;PMS5003;60223;34.854;-92.408;2024-02-16T04:47:14;14;13;
37709;PMS5003;60223;34.854;-92.408;2024-02-16T04:49:41;13;13;
37709;PMS5003;60223;34.854;-92.408;2024-02-16T04:52:07;11;11;
37709;PMS5003;60223;34.854;-92.408;2024-02-16T04:54:30;18;17;
37709;PMS5003;60223;34.854;-92.408;2024-02-16T04:56:58;11;11;
37709;PMS5003;60223;34.854;-92.408;2024-02-16T04:59:23;18;15;
37709;PMS5003;60223;34.854;-92.408;2024-02-16T05:01:49;16;15;
37709;PMS5003;60223;34.854;-92.408;2024-02-16T05:04:14;15;12;
37709;PMS5003;60223;34.854;-92.408;2024-02-16T05:06:39;13;12;
37709;PMS5003;60223;34.854;-92.408;2024-02-16T05:09:05;14;14;
37709;PMS5003;60223;34.854;-92.408;2024-02-16T05:11:31;13;13;
37709;PMS5003;60223;34.854;-92.408;2024-02-16T05:13:56;11;11;
37709;PMS5003;60223;34.854;-92.408;2024-02-16T05:16:22;11;11;
37709;PMS5003;60223;34.854;-92.408;2024-02-16T05:18:47;12;11;
37709;PMS5003;60223;34.854;-92.408;2024-02-16T05:21:13;10;10;
37709;PMS5003;60223;34.854;-92.408;2024-02-16T05:23:36;9;9;
37709;PMS5003;60223;34.854;-92.408;2024-02-16T05:26:04;14;12;
37709;PMS5003;60223;34.854;-92.408;2024-02-16T05:28:30;16;13;
37709;PMS5003;60223;34.854;-92.408;2024-02-16T05:30:55;12;12;
37709;PMS5003;60223;34.854;-92.408;2024-02-16T05:33:21;13;13;
37709;PMS5003;60223;34.854;-92.408;2024-02-16T05:35:44;16;16;
37709;PMS5003;60223;34.854;-92.408;2024-02-16T05:38:12;13;12;
37709;PMS5003;60223;34.854;-92.408;2024-02-16T05:40:37;11;11;
37709;PMS5003;60223;34.854;-92.408;2024-02-16T05:43:02;13;12;
37709;PMS5003;60223;34.854;-92.408;2024-02-16T05:45:27;10;10;
37709;PMS5003;60223;34.854;-92.408;2024-02-16T05:47:54;9;9;
37709;PMS5003;60223;34.854;-92.408;2024-02-16T05:50:20;10;10;
37709;PMS5003;60223;34.854;-92.408;2024-02-16T05:52:44;10;10;
37709;PMS5003;60223;34.854;-92.408;2024-02-16T05:55:09;10;9;
37709;PMS5003;60223;34.854;-92.408;2024-02-16T05:57:36;11;11;
37709;PMS5003;60223;34.854;-92.408;2024-02-16T06:00:02;11;11;
37709;PMS5003;60223;34.854;-92.408;2024-02-16T06:02:27;12;12;
37709;PMS5003;60223;34.854;-92.408;2024-02-16T06:04:53;11;11;
37709;PMS5003;60223;34.854;-92.408;2024-02-16T06:07:18;12;12;
37709;PMS5003;60223;34.854;-92.408;2024-02-16T06:09:42;11;10;
37709;PMS5003;60223;34.854;-92.408;2024-02-16T06:12:10;11;10;
37709;PMS5003;60223;34.854;-92.408;2024-02-16T06:14:34;8;8;
37709;PMS5003;60223;34.854;-92.408;2024-02-16T06:17:01;9;9;
37709;PMS5003;60223;34.854;-92.408;2024-02-16T06:19:26;10;10;
37709;PMS5003;60223;34.854;-92.408;2024-02-16T06:21:53;9;9;
37709;PMS5003;60223;34.854;-92.408;2024-02-16T06:24:18;7;7;
37709;PMS5003;60223;34.854;-92.408;2024-02-16T06:26:41;10;10;
37709;PMS5003;60223;34.854;-92.408;2024-02-16T06:29:09;8;8;
37709;PMS5003;60223;34.854;-92.408;2024-02-16T06:31:35;10;10;
37709;PMS5003;60223;34.854;-92.408;2024-02-16T06:33:59;11;11;
37709;PMS5003;60223;34.854;-92.408;2024-02-16T06:36:26;9;9;
37709;PMS5003;60223;34.854;-92.408;2024-02-16T06:38:51;11;11;
37709;PMS5003;60223;34.854;-92.408;2024-02-16T06:41:16;13;13;
37709;PMS5003;60223;34.854;-92.408;2024-02-16T06:43:40;10;10;
37709;PMS5003;60223;34.854;-92.408;2024-02-16T06:46:08;9;9;
37709;PMS5003;60223;34.854;-92.408;2024-02-16T06:48:33;12;10;
37709;PMS5003;60223;34.854;-92.408;2024-02-16T06:50:59;10;10;
37709;PMS5003;60223;34.854;-92.408;2024-02-16T06:53:24;10;10;
37709;PMS5003;60223;34.854;-92.408;2024-02-16T06:55:50;10;8;
37709;PMS5003;60223;34.854;-92.408;2024-02-16T06:58:16;15;15;
37709;PMS5003;60223;34.854;-92.408;2024-02-16T07:00:41;11;11;
37709;PMS5003;60223;34.854;-92.408;2024-02-16T07:03:04;8;8;
37709;PMS5003;60223;34.854;-92.408;2024-02-16T07:05:33;8;8;
37709;PMS5003;60223;34.854;-92.408;2024-02-16T07:07:58;7;7;
37709;PMS5003;60223;34.854;-92.408;2024-02-16T07:10:24;9;9;
37709;PMS5003;60223;34.854;-92.408;2024-02-16T07:12:49;6;6;
37709;PMS5003;60223;34.854;-92.408;2024-02-16T07:15:12;8;7;
37709;PMS5003;60223;34.854;-92.408;2024-02-16T07:17:38;7;7;
37709;PMS5003;60223;34.854;-92.408;2024-02-16T07:20:06;7;7;
37709;PMS5003;60223;34.854;-92.408;2024-02-16T07:22:32;11;10;
37709;PMS5003;60223;34.854;-92.408;2024-02-16T07:24:57;8;8;
37709;PMS5003;60223;34.854;-92.408;2024-02-16T07:27:23;10;9;
37709;PMS5003;60223;34.854;-92.408;2024-02-16T07:29:46;9;9;
37709;PMS5003;60223;34.854;-92.408;2024-02-16T07:32:15;9;9;
37709;PMS5003;60223;34.854;-92.408;2024-02-16T07:34:40;7;7;
37709;PMS5003;60223;34.854;-92.408;2024-02-16T07:37:05;9;7;
37709;PMS5003;60223;34.854;-92.408;2024-02-16T07:39:32;8;8;
37709;PMS5003;60223;34.854;-92.408;2024-02-16T07:41:57;7;7;
37709;PMS5003;60223;34.854;-92.408;2024-02-16T07:44:22;7;7;
37709;PMS5003;60223;34.854;-92.408;2024-02-16T07:46:48;9;9;
37709;PMS5003;60223;34.854;-92.408;2024-02-16T07:49:13;9;7;
37709;PMS5003;60223;34.854;-92.408;2024-02-16T07:51:36;9;9;
37709;PMS5003;60223;34.854;-92.408;2024-02-16T07:54:06;8;7;
37709;PMS5003;60223;34.854;-92.408;2024-02-16T07:56:30;8;7;
37709;PMS5003;60223;34.854;-92.408;2024-02-16T07:58:56;10;9;
37709;PMS5003;60223;34.854;-92.408;2024-02-16T08:01:22;10;9;
37709;PMS5003;60223;34.854;-92.408;2024-02-16T08:03:47;7;7;
37709;PMS5003;60223;34.854;-92.408;2024-02-16T08:06:13;9;8;
37709;PMS5003;60223;34.854;-92.408;2024-02-16T08:08:36;8;8;
37709;PMS5003;60223;34.854;-92.408;2024-02-16T08:11:04;6;6;
37709;PMS5003;60223;34.854;-92.408;2024-02-16T08:13:30;7;7;
37709;PMS5003;60223;34.854;-92.408;2024-02-16T08:15:56;8;8;
37709;PMS5003;60223;34.854;-92.408;2024-02-16T08:18:21;9;8;
37709;PMS5003;60223;34.854;-92.408;2024-02-16T08:20:46;8;8;
37709;PMS5003;60223;34.854;-92.408;2024-02-16T08:23:12;7;7;
37709;PMS5003;60223;34.854;-92.408;2024-02-16T08:25:38;7;7;
37709;PMS5003;60223;34.854;-92.408;2024-02-16T08:28:04;9;9;
37709;PMS5003;60223;34.854;-92.408;2024-02-16T08:30:27;8;7;
37709;PMS5003;60223;34.854;-92.408;2024-02-16T08:32:54;8;8;
37709;PMS5003;60223;34.854;-92.408;2024-02-16T08:35:20;6;6;
37709;PMS5003;60223;34.854;-92.408;2024-02-16T08:37:45;6;6;
37709;PMS5003;60223;34.854;-92.408;2024-02-16T08:40:12;8;8;
37709;PMS5003;60223;34.854;-92.408;2024-02-16T08:42:37;7;7;
37709;PMS5003;60223;34.854;-92.408;2024-02-16T08:45:01;8;7;
37709;PMS5003;60223;34.854;-92.408;2024-02-16T08:47:28;8;8;
37709;PMS5003;60223;34.854;-92.408;2024-02-16T08:49:54;6;6;
37709;PMS5003;60223;34.854;-92.408;2024-02-16T08:52:19;8;7;
37709;PMS5003;60223;34.854;-92.408;2024-02-16T08:54:45;7;7;
37709;PMS5003;60223;34.854;-92.408;2024-02-16T08:57:08;9;8;
37709;PMS5003;60223;34.854;-92.408;2024-02-16T08:59:34;6;6;
37709;PMS5003;60223;34.854;-92.408;2024-02-16T09:02:01;7;7;
37709;PMS5003;60223;34.854;-92.408;2024-02-16T09:04:27;5;5;
37709;PMS5003;60223;34.854;-92.408;2024-02-16T09:06:53;5;5;
37709;PMS5003;60223;34.854;-92.408;2024-02-16T09:09:18;7;7;
37709;PMS5003;60223;34.854;-92.408;2024-02-16T09:11:42;6;6;
37709;PMS5003;60223;34.854;-92.408;2024-02-16T09:14:09;7;7;
37709;PMS5003;60223;34.854;-92.408;2024-02-16T09:16:35;5;5;
37709;PMS5003;60223;34.854;-92.408;2024-02-16T09:19:01;6;6;
37709;PMS5003;60223;34.854;-92.408;2024-02-16T09:21:26;7;7;
37709;PMS5003;60223;34.854;-92.408;2024-02-16T09:23:52;7;7;
37709;PMS5003;60223;34.854;-92.408;2024-02-16T09:26:16;5;5;
37709;PMS5003;60223;34.854;-92.408;2024-02-16T09:28:43;6;6;
37709;PMS5003;60223;34.854;-92.408;2024-02-16T09:31:09;7;7;
37709;PMS5003;60223;34.854;-92.408;2024-02-16T09:33:35;8;8;
37709;PMS5003;60223;34.854;-92.408;2024-02-16T09:36:00;6;6;
37709;PMS5003;60223;34.854;-92.408;2024-02-16T09:38:24;5;5;
37709;PMS5003;60223;34.854;-92.408;2024-02-16T09:40:50;8;7;
37709;PMS5003;60223;34.854;-92.408;2024-02-16T09:43:24;7;7;
37709;PMS5003;60223;34.854;-92.408;2024-02-16T09:45:42;5;5;
37709;PMS5003;60223;34.854;-92.408;2024-02-16T09:48:08;6;6;
37709;PMS5003;60223;34.854;-92.408;2024-02-16T09:50:34;7;7;
37709;PMS5003;60223;34.854;-92.408;2024-02-16T09:52:57;6;6;
37709;PMS5003;60223;34.854;-92.408;2024-02-16T09:55:25;7;5;
37709;PMS5003;60223;34.854;-92.408;2024-02-16T10:00:16;4;4;
37709;PMS5003;60223;34.854;-92.408;2024-02-16T10:02:43;6;6;
37709;PMS5003;60223;34.854;-92.408;2024-02-16T10:05:11;5;5;
37709;PMS5003;60223;34.854;-92.408;2024-02-16T10:07:31;6;5;
37709;PMS5003;60223;34.854;-92.408;2024-02-16T10:09:59;6;5;
37709;PMS5003;60223;34.854;-92.408;2024-02-16T10:12:24;8;5;
37709;PMS5003;60223;34.854;-92.408;2024-02-16T10:14:54;4;4;
37709;PMS5003;60223;34.854;-92.408;2024-02-16T10:17:16;6;5;
37709;PMS5003;60223;34.854;-92.408;2024-02-16T10:19:41;5;5;
37709;PMS5003;60223;34.854;-92.408;2024-02-16T10:22:07;5;4;
37709;PMS5003;60223;34.854;-92.408;2024-02-16T10:24:33;7;7;
37709;PMS5003;60223;34.854;-92.408;2024-02-16T10:26:58;5;5;
37709;PMS5003;60223;34.854;-92.408;2024-02-16T10:29:24;6;5;
37709;PMS5003;60223;34.854;-92.408;2024-02-16T10:31:50;6;6;
37709;PMS5003;60223;34.854;-92.408;2024-02-16T10:34:15;4;4;
37709;PMS5003;60223;34.854;-92.408;2024-02-16T10:36:41;6;6;
37709;PMS5003;60223;34.854;-92.408;2024-02-16T10:39:05;7;6;
37709;PMS5003;60223;34.854;-92.408;2024-02-16T10:41:33;5;4;
37709;PMS5003;60223;34.854;-92.408;2024-02-16T10:43:58;5;5;
37709;PMS5003;60223;34.854;-92.408;2024-02-16T10:46:25;4;4;
37709;PMS5003;60223;34.854;-92.408;2024-02-16T10:48:49;7;7;
37709;PMS5003;60223;34.854;-92.408;2024-02-16T10:51:15;5;5;
37709;PMS5003;60223;34.854;-92.408;2024-02-16T10:53:41;4;4;
37709;PMS5003;60223;34.854;-92.408;2024-02-16T10:56:08;8;8;
37709;PMS5003;60223;34.854;-92.408;2024-02-16T10:58:32;5;5;
37709;PMS5003;60223;34.854;-92.408;2024-02-16T11:00:57;5;5;
37709;PMS5003;60223;34.854;-92.408;2024-02-16T11:03:23;6;5;
37709;PMS5003;60223;34.854;-92.408;2024-02-16T11:05:48;5;5;
37709;PMS5003;60223;34.854;-92.408;2024-02-16T11:08:14;4;4;
37709;PMS5003;60223;34.854;-92.408;2024-02-16T11:10:52;6;6;
37709;PMS5003;60223;34.854;-92.408;2024-02-16T11:13:05;5;4;
37709;PMS5003;60223;34.854;-92.408;2024-02-16T11:15:31;5;5;
37709;PMS5003;60223;34.854;-92.408;2024-02-16T11:17:58;4;4;
37709;PMS5003;60223;34.854;-92.408;2024-02-16T11:20:23;5;5;
37709;PMS5003;60223;34.854;-92.408;2024-02-16T11:22:52;5;5;
37709;PMS5003;60223;34.854;-92.408;2024-02-16T11:25:15;4;4;
37709;PMS5003;60223;34.854;-92.408;2024-02-16T11:27:39;3;3;
37709;PMS5003;60223;34.854;-92.408;2024-02-16T11:30:05;5;5;
37709;PMS5003;60223;34.854;-92.408;2024-02-16T11:32:32;6;6;
37709;PMS5003;60223;34.854;-92.408;2024-02-16T11:35:03;4;4;
37709;PMS5003;60223;34.854;-92.408;2024-02-16T11:37:22;6;6;
37709;PMS5003;60223;34.854;-92.408;2024-02-16T11:39:51;5;5;
37709;PMS5003;60223;34.854;-92.408;2024-02-16T11:42:13;6;6;
37709;PMS5003;60223;34.854;-92.408;2024-02-16T11:44:39;6;6;
37709;PMS5003;60223;34.854;-92.408;2024-02-16T11:47:04;6;6;
37709;PMS5003;60223;34.854;-92.408;2024-02-16T11:49:29;5;4;
37709;PMS5003;60223;34.854;-92.408;2024-02-16T11:51:58;7;6;
37709;PMS5003;60223;34.854;-92.408;2024-02-16T11:54:23;7;7;
37709;PMS5003;60223;34.854;-92.408;2024-02-16T11:56:47;5;5;
37709;PMS5003;60223;34.854;-92.408;2024-02-16T11:59:13;5;5;
37709;PMS5003;60223;34.854;-92.408;2024-02-16T12:04:05;5;5;
37709;PMS5003;60223;34.854;-92.408;2024-02-16T12:06:29;3;3;
37709;PMS5003;60223;34.854;-92.408;2024-02-16T12:08:55;4;3;
37709;PMS5003;60223;34.854;-92.408;2024-02-16T12:11:20;5;5;
37709;PMS5003;60223;34.854;-92.408;2024-02-16T12:13:46;5;5;
37709;PMS5003;60223;34.854;-92.408;2024-02-16T12:16:12;5;5;
37709;PMS5003;60223;34.854;-92.408;2024-02-16T12:18:38;4;4;
37709;PMS5003;60223;34.854;-92.408;2024-02-16T12:21:04;5;5;
37709;PMS5003;60223;34.854;-92.408;2024-02-16T12:23:29;6;6;
37709;PMS5003;60223;34.854;-92.408;2024-02-16T12:25:53;8;6;
37709;PMS5003;60223;34.854;-92.408;2024-02-16T12:28:23;6;5;
37709;PMS5003;60223;34.854;-92.408;2024-02-16T12:30:47;5;5;
37709;PMS5003;60223;34.854;-92.408;2024-02-16T12:33:11;5;5;
37709;PMS5003;60223;34.854;-92.408;2024-02-16T12:35:35;5;5;
37709;PMS5003;60223;34.854;-92.408;2024-02-16T12:38:02;3;3;
37709;PMS5003;60223;34.854;-92.408;2024-02-16T12:40:28;5;5;
37709;PMS5003;60223;34.854;-92.408;2024-02-16T12:42:54;7;7;
37709;PMS5003;60223;34.854;-92.408;2024-02-16T12:47:44;7;7;
37709;PMS5003;60223;34.854;-92.408;2024-02-16T12:50:11;5;4;
37709;PMS5003;60223;34.854;-92.408;2024-02-16T12:52:36;3;3;
37709;PMS5003;60223;34.854;-92.408;2024-02-16T12:55:01;3;3;
37709;PMS5003;60223;34.854;-92.408;2024-02-16T12:57:27;4;4;
37709;PMS5003;60223;34.854;-92.408;2024-02-16T12:59:53;6;6;
37709;PMS5003;60223;34.854;-92.408;2024-02-16T13:02:16;5;4;
37709;PMS5003;60223;34.854;-92.408;2024-02-16T13:04:45;6;6;
37709;PMS5003;60223;34.854;-92.408;2024-02-16T13:07:08;4;4;
37709;PMS5003;60223;34.854;-92.408;2024-02-16T13:09:35;5;5;
37709;PMS5003;60223;34.854;-92.408;2024-02-16T13:12:01;5;5;
37709;PMS5003;60223;34.854;-92.408;2024-02-16T13:14:24;7;6;
37709;PMS5003;60223;34.854;-92.408;2024-02-16T13:16:52;4;4;
37709;PMS5003;60223;34.854;-92.408;2024-02-16T13:19:17;6;6;
37709;PMS5003;60223;34.854;-92.408;2024-02-16T13:21:43;4;4;
37709;PMS5003;60223;34.854;-92.408;2024-02-16T13:24:09;5;5;
37709;PMS5003;60223;34.854;-92.408;2024-02-16T13:26:32;5;5;
37709;PMS5003;60223;34.854;-92.408;2024-02-16T13:28:57;5;5;
37709;PMS5003;60223;34.854;-92.408;2024-02-16T13:31:26;6;6;
37709;PMS5003;60223;34.854;-92.408;2024-02-16T13:33:52;4;4;
37709;PMS5003;60223;34.854;-92.408;2024-02-16T13:36:17;4;4;
37709;PMS5003;60223;34.854;-92.408;2024-02-16T13:38:40;4;3;
37709;PMS5003;60223;34.854;-92.408;2024-02-16T13:41:08;4;4;
37709;PMS5003;60223;34.854;-92.408;2024-02-16T13:43:34;4;4;
37709;PMS5003;60223;34.854;-92.408;2024-02-16T13:45:59;4;4;
37709;PMS5003;60223;34.854;-92.408;2024-02-16T13:48:24;5;5;
37709;PMS5003;60223;34.854;-92.408;2024-02-16T13:50:51;3;3;
37709;PMS5003;60223;34.854;-92.408;2024-02-16T13:53:18;5;5;
37709;PMS5003;60223;34.854;-92.408;2024-02-16T13:55:42;3;3;
37709;PMS5003;60223;34.854;-92.408;2024-02-16T13:58:07;4;4;
37709;PMS5003;60223;34.854;-92.408;2024-02-16T14:00:33;5;5;
37709;PMS5003;60223;34.854;-92.408;2024-02-16T14:02:56;5;5;
37709;PMS5003;60223;34.854;-92.408;2024-02-16T14:05:24;5;5;
37709;PMS5003;60223;34.854;-92.408;2024-02-16T14:07:49;6;5;
37709;PMS5003;60223;34.854;-92.408;2024-02-16T14:10:15;4;4;
37709;PMS5003;60223;34.854;-92.408;2024-02-16T14:12:41;5;5;
37709;PMS5003;60223;34.854;-92.408;2024-02-16T14:15:07;4;4;
37709;PMS5003;60223;34.854;-92.408;2024-02-16T14:17:32;7;5;
37709;PMS5003;60223;34.854;-92.408;2024-02-16T14:19:56;4;4;
37709;PMS5003;60223;34.854;-92.408;2024-02-16T14:22:22;8;6;
37709;PMS5003;60223;34.854;-92.408;2024-02-16T14:24:49;4;4;
37709;PMS5003;60223;34.854;-92.408;2024-02-16T14:27:14;6;4;
37709;PMS5003;60223;34.854;-92.408;2024-02-16T14:29:37;5;5;
37709;PMS5003;60223;34.854;-92.408;2024-02-16T14:32:03;4;4;
37709;PMS5003;60223;34.854;-92.408;2024-02-16T14:34:30;6;6;
37709;PMS5003;60223;34.854;-92.408;2024-02-16T14:36:57;6;5;
37709;PMS5003;60223;34.854;-92.408;2024-02-16T14:39:23;7;6;
37709;PMS5003;60223;34.854;-92.408;2024-02-16T14:41:48;6;6;
37709;PMS5003;60223;34.854;-92.408;2024-02-16T14:44:12;5;5;
37709;PMS5003;60223;34.854;-92.408;2024-02-16T14:46:39;6;6;
37709;PMS5003;60223;34.854;-92.408;2024-02-16T14:49:05;6;6;
37709;PMS5003;60223;34.854;-92.408;2024-02-16T14:51:27;4;4;
37709;PMS5003;60223;34.854;-92.408;2024-02-16T14:53:56;5;4;
37709;PMS5003;60223;34.854;-92.408;2024-02-16T14:56:21;6;6;
37709;PMS5003;60223;34.854;-92.408;2024-02-16T14:58:48;6;6;
37709;PMS5003;60223;34.854;-92.408;2024-02-16T15:01:13;4;3;
37709;PMS5003;60223;34.854;-92.408;2024-02-16T15:03:39;5;5;
37709;PMS5003;60223;34.854;-92.408;2024-02-16T15:06:02;6;5;
37709;PMS5003;60223;34.854;-92.408;2024-02-16T15:08:30;5;5;
37709;PMS5003;60223;34.854;-92.408;2024-02-16T15:10:56;3;3;
37709;PMS5003;60223;34.854;-92.408;2024-02-16T15:13:21;7;6;
37709;PMS5003;60223;34.854;-92.408;2024-02-16T15:15:47;6;6;
37709;PMS5003;60223;34.854;-92.408;2024-02-16T15:18:13;6;6;
37709;PMS5003;60223;34.854;-92.408;2024-02-16T15:20:35;6;6;
37709;PMS5003;60223;34.854;-92.408;2024-02-16T15:23:04;7;6;
37709;PMS5003;60223;34.854;-92.408;2024-02-16T15:25:30;5;5;
37709;PMS5003;60223;34.854;-92.408;2024-02-16T15:27:55;7;7;
37709;PMS5003;60223;34.854;-92.408;2024-02-16T15:30:21;7;5;
37709;PMS5003;60223;34.854;-92.408;2024-02-16T15:32:46;5;5;
37709;PMS5003;60223;34.854;-92.408;2024-02-16T15:35:12;5;5;
37709;PMS5003;60223;34.854;-92.408;2024-02-16T15:37:38;4;4;
37709;PMS5003;60223;34.854;-92.408;2024-02-16T15:40:08;5;3;
37709;PMS5003;60223;34.854;-92.408;2024-02-16T15:42:29;5;5;
37709;PMS5003;60223;34.854;-92.408;2024-02-16T15:44:54;6;5;
37709;PMS5003;60223;34.854;-92.408;2024-02-16T15:47:20;6;6;
37709;PMS5003;60223;34.854;-92.408;2024-02-16T15:49:46;6;6;
37709;PMS5003;60223;34.854;-92.408;2024-02-16T15:52:11;5;5;
37709;PMS5003;60223;34.854;-92.408;2024-02-16T15:54:37;5;5;
37709;PMS5003;60223;34.854;-92.408;2024-02-16T15:57:02;6;5;
37709;PMS5003;60223;34.854;-92.408;2024-02-16T15:59:26;8;6;
37709;PMS5003;60223;34.854;-92.408;2024-02-16T16:01:53;4;4;
37709;PMS5003;60223;34.854;-92.408;2024-02-16T16:04:19;3;3;